Time;durP1;ratioP1;P1;durP2;ratioP2;P2;SDS_P1;SDS_P2;PMS_P1;PMS_P2;Temp;Humidity;BMP_temperature;BMP_pressure;BME280_temperature;BME280_humidity;BME280_pressure;Samples;Min_cycle;Max_cycle;Signal;HPM_P1;HPM_P2
2022/06/18 00:02:23;;;;;;;5.70;3.53;;;;;;;23.85;41.36;98012.56;5050448;28;20195;-71
2022/06/18 00:04:48;;;;;;;6.00;2.87;;;;;;;23.85;41.25;98019.75;5051646;28;20642;-71
2022/06/18 00:07:20;;;;;;;4.20;3.00;;;;;;;23.87;41.64;98009.66;5048985;28;20422;-71
2022/06/18 00:09:53;;;;;;;4.90;3.40;;;;;;;23.88;41.33;98013.97;5049107;28;20823;-70
2022/06/18 00:15:18;;;;;;;6.40;3.53;;;;;;;23.84;41.47;98010.06;5056456;28;20440;-70
2022/06/18 00:17:44;;;;;;;6.60;3.60;;;;;;;23.88;41.60;98016.63;5049839;28;20429;-71
2022/06/18 00:20:11;;;;;;;3.50;3.20;;;;;;;23.79;41.58;98016.09;5050619;28;20579;-71
2022/06/18 00:22:37;;;;;;;6.30;3.20;;;;;;;23.65;41.67;98007.34;5050772;28;20942;-71
2022/06/18 00:25:10;;;;;;;4.60;3.17;;;;;;;23.66;42.01;98006.31;5048955;28;20426;-71
2022/06/18 00:27:35;;;;;;;3.33;3.03;;;;;;;23.66;41.60;98003.66;5046048;28;20202;-71
2022/06/18 00:30:01;;;;;;;5.83;3.37;;;;;;;23.70;41.83;98009.38;5046543;28;20430;-71
2022/06/18 00:32:26;;;;;;;4.10;3.30;;;;;;;23.72;42.14;98005.44;5047597;28;20199;-70
2022/06/18 00:34:54;;;;;;;3.87;3.50;;;;;;;23.75;41.57;98005.00;5047989;28;20664;-72
2022/06/18 00:37:20;;;;;;;3.97;3.10;;;;;;;23.77;41.56;98002.94;5051070;28;20764;-70
2022/06/18 00:39:45;;;;;;;3.37;2.87;;;;;;;23.73;41.24;98001.72;5057103;28;20504;-70
2022/06/18 00:42:22;;;;;;;3.10;2.73;;;;;;;23.69;41.60;98008.53;5053399;28;20641;-71
2022/06/18 00:44:54;;;;;;;3.73;2.87;;;;;;;23.60;41.84;98008.00;5048538;28;20171;-72
2022/06/18 00:47:22;;;;;;;4.23;2.80;;;;;;;23.55;42.00;97996.31;5047075;28;20494;-70
2022/06/18 00:50:09;;;;;;;7.93;3.27;;;;;;;23.52;42.34;98004.78;5050625;28;20514;-70
2022/06/18 00:52:49;;;;;;;3.30;3.00;;;;;;;23.49;41.73;97995.34;5048361;28;20882;-70
2022/06/18 00:55:18;;;;;;;4.10;2.50;;;;;;;23.49;42.00;98003.38;5052205;28;20558;-71
2022/06/18 00:57:51;;;;;;;3.80;2.93;;;;;;;23.52;42.08;97999.41;5055644;28;20784;-71
2022/06/18 01:00:20;;;;;;;2.90;2.60;;;;;;;23.58;41.58;97995.88;5049367;28;20431;-70
2022/06/18 01:02:47;;;;;;;3.00;2.60;;;;;;;23.56;41.47;97997.97;5045591;28;20445;-70
2022/06/18 01:05:21;;;;;;;3.17;2.87;;;;;;;23.60;41.60;97996.47;5050136;28;20436;-70
2022/06/18 01:07:51;;;;;;;3.80;2.97;;;;;;;23.51;41.88;98000.47;5049325;28;20417;-70
2022/06/18 01:10:24;;;;;;;3.80;2.50;;;;;;;23.47;41.93;97990.19;5049875;28;20516;-69
2022/06/18 01:12:50;;;;;;;2.63;2.43;;;;;;;23.44;41.95;97985.25;5051152;28;20515;-70
2022/06/18 01:15:20;;;;;;;2.60;2.40;;;;;;;23.37;41.88;97983.69;5053248;28;20426;-70
2022/06/18 01:17:47;;;;;;;9.20;2.83;;;;;;;23.33;41.95;97983.28;5050100;28;20252;-70
2022/06/18 01:20:13;;;;;;;3.27;2.70;;;;;;;23.39;42.14;97984.28;5048545;28;20472;-70
2022/06/18 01:22:45;;;;;;;3.27;2.70;;;;;;;23.44;41.64;97982.59;5048309;28;20422;-70
2022/06/18 01:25:11;;;;;;;2.23;2.10;;;;;;;23.50;41.24;97978.25;5049770;28;20829;-70
2022/06/18 01:27:38;;;;;;;3.70;2.60;;;;;;;23.52;41.36;97972.69;5048605;28;20472;-70
2022/06/18 01:30:08;;;;;;;4.57;2.67;;;;;;;23.47;41.46;97971.47;5048848;28;20178;-69
2022/06/18 01:32:34;;;;;;;2.63;2.43;;;;;;;23.42;41.75;97965.97;5046176;28;20504;-69
2022/06/18 01:35:00;;;;;;;3.80;2.83;;;;;;;23.44;41.60;97963.06;5047100;28;20465;-70
2022/06/18 01:37:26;;;;;;;3.30;2.53;;;;;;;23.50;41.04;97967.56;5045389;28;20182;-71
2022/06/18 01:39:51;;;;;;;2.60;2.40;;;;;;;23.51;41.26;97966.50;5051658;28;20183;-70
2022/06/18 01:42:36;;;;;;;2.67;2.47;;;;;;;23.51;41.45;97963.00;5054698;28;20429;-70
2022/06/18 01:45:08;;;;;;;3.03;2.83;;;;;;;23.45;40.75;97957.47;5048586;28;20779;-70
2022/06/18 01:47:39;;;;;;;4.80;2.77;;;;;;;23.46;39.90;97961.00;5053241;28;20422;-70
2022/06/18 01:50:19;;;;;;;6.53;2.60;;;;;;;23.40;39.77;97951.97;5050756;28;20433;-71
2022/06/18 01:52:59;;;;;;;2.83;2.60;;;;;;;23.36;39.35;97948.09;5051696;28;20465;-71
2022/06/18 01:55:29;;;;;;;3.10;2.90;;;;;;;23.30;39.29;97948.97;5052298;28;20421;-72
2022/06/18 01:57:59;;;;;;;2.93;2.67;;;;;;;23.40;39.18;97941.28;5051778;28;20418;-71
2022/06/18 02:00:27;;;;;;;4.53;2.40;;;;;;;23.45;39.38;97937.94;5051399;28;20490;-71
2022/06/18 02:02:52;;;;;;;2.73;2.40;;;;;;;23.42;39.38;97935.72;5047831;28;20964;-71
2022/06/18 02:05:20;;;;;;;2.83;2.43;;;;;;;23.43;39.24;97938.19;5052147;28;20425;-72
2022/06/18 02:07:47;;;;;;;3.83;2.40;;;;;;;23.43;39.07;97932.00;5051304;28;20313;-71
2022/06/18 02:10:23;;;;;;;4.60;2.73;;;;;;;23.44;39.10;97926.41;5033443;28;20438;-70
2022/06/18 02:12:49;;;;;;;6.77;2.67;;;;;;;23.47;39.00;97928.66;5034105;28;20516;-70
2022/06/18 02:15:20;;;;;;;3.20;2.67;;;;;;;23.47;39.45;97926.00;5049457;28;20513;-70
2022/06/18 02:17:45;;;;;;;7.07;2.90;;;;;;;23.43;39.84;97919.47;5052152;28;20728;-70
2022/06/18 02:20:16;;;;;;;2.40;2.23;;;;;;;23.30;41.01;97925.72;5052476;28;20433;-70
2022/06/18 02:22:47;;;;;;;2.50;2.30;;;;;;;23.28;41.58;97918.94;5053007;28;20175;-69
2022/06/18 02:25:13;;;;;;;2.80;2.60;;;;;;;23.28;41.81;97916.28;5051081;28;20426;-70
2022/06/18 02:27:39;;;;;;;6.60;2.80;;;;;;;23.29;41.95;97915.25;5052892;28;20429;-70
2022/06/18 02:30:11;;;;;;;2.57;2.37;;;;;;;23.31;41.41;97905.97;5050484;28;20452;-71
2022/06/18 02:32:48;;;;;;;3.87;2.27;;;;;;;23.27;41.69;97907.44;5045395;28;20721;-71
2022/06/18 02:35:15;;;;;;;2.60;2.40;;;;;;;23.16;41.72;97908.94;5050532;28;20458;-71
2022/06/18 02:37:41;;;;;;;4.00;2.83;;;;;;;23.00;41.14;97909.44;5048305;28;20433;-71
2022/06/18 02:40:22;;;;;;;4.17;2.83;;;;;;;22.94;41.08;97904.94;5053957;28;20429;-71
2022/06/18 02:42:48;;;;;;;3.63;2.50;;;;;;;22.97;41.14;97904.53;5052260;28;20207;-72
2022/06/18 02:45:14;;;;;;;5.43;2.60;;;;;;;23.07;41.97;97904.06;5058821;28;20432;-70
2022/06/18 02:47:40;;;;;;;4.43;2.40;;;;;;;23.15;41.96;97911.81;5051005;28;20909;-70
2022/06/18 02:50:09;;;;;;;4.77;2.47;;;;;;;23.16;42.22;97911.59;5051220;28;20424;-71
2022/06/18 02:52:40;;;;;;;2.60;2.40;;;;;;;23.12;42.63;97913.06;5050895;28;20702;-69
2022/06/18 02:55:12;;;;;;;4.53;2.60;;;;;;;23.08;42.65;97911.84;5052601;28;21131;-71
2022/06/18 02:57:37;;;;;;;4.23;2.73;;;;;;;23.08;42.62;97909.16;5048909;28;20805;-69
2022/06/18 03:00:08;;;;;;;3.73;3.10;;;;;;;23.08;42.71;97906.50;5050360;28;20422;-69
2022/06/18 03:02:34;;;;;;;3.90;2.50;;;;;;;23.07;42.70;97912.88;5052646;28;20822;-69
2022/06/18 03:04:59;;;;;;;3.00;2.80;;;;;;;23.09;42.12;97912.69;5050908;28;20417;-70
2022/06/18 03:07:25;;;;;;;4.37;2.87;;;;;;;23.09;42.58;97908.13;5051473;28;20183;-68
2022/06/18 03:12:34;;;;;;;4.03;2.83;;;;;;;23.10;42.10;97915.13;5047352;28;20199;-69
2022/06/18 03:14:59;;;;;;;3.03;2.73;;;;;;;23.03;42.34;97906.34;5051971;28;20416;-70
2022/06/18 03:17:25;;;;;;;3.10;2.90;;;;;;;22.99;42.37;97907.81;5051496;28;20254;-69
2022/06/18 03:19:56;;;;;;;3.00;2.70;;;;;;;22.86;41.52;97893.50;5051964;28;20179;-69
2022/06/18 03:22:22;;;;;;;3.37;3.07;;;;;;;22.80;41.93;97897.03;5051512;28;20175;-69
2022/06/18 03:24:47;;;;;;;3.00;2.80;;;;;;;22.86;41.80;97898.84;5051780;28;20472;-68
2022/06/18 03:27:14;;;;;;;3.13;2.93;;;;;;;22.88;41.67;97903.16;5050121;28;20183;-70
2022/06/18 03:29:40;;;;;;;3.90;3.17;;;;;;;22.88;41.71;97895.13;5049507;28;20185;-71
2022/06/18 03:32:06;;;;;;;3.20;2.70;;;;;;;22.84;42.40;97895.56;5051443;28;20709;-70
2022/06/18 03:34:32;;;;;;;2.90;2.70;;;;;;;22.86;42.98;97896.16;5048301;28;20456;-69
2022/06/18 03:36:57;;;;;;;3.90;2.90;;;;;;;22.92;43.29;97896.34;5051269;28;20850;-70
2022/06/18 03:39:24;;;;;;;2.97;2.77;;;;;;;22.85;43.21;97897.19;5051603;28;20676;-69
2022/06/18 03:41:49;;;;;;;4.43;3.23;;;;;;;22.75;43.12;97896.84;5052391;28;20179;-69
2022/06/18 03:44:15;;;;;;;7.63;2.90;;;;;;;22.71;43.58;97906.31;5058429;28;20445;-70
2022/06/18 03:46:42;;;;;;;5.70;3.10;;;;;;;22.70;43.58;97902.00;5051095;28;20183;-69
2022/06/18 03:49:08;;;;;;;3.50;3.20;;;;;;;22.70;43.56;97910.00;5050097;28;20218;-70
2022/06/18 03:51:34;;;;;;;3.60;2.80;;;;;;;22.66;43.27;97914.97;5043507;28;20468;-70
2022/06/18 03:54:00;;;;;;;4.33;3.50;;;;;;;22.55;44.23;97919.16;5049297;28;20206;-70
2022/06/18 03:56:28;;;;;;;7.70;3.30;;;;;;;22.55;44.36;97913.81;5050225;28;20785;-70
2022/06/18 03:58:54;;;;;;;4.43;2.80;;;;;;;22.55;44.06;97924.50;5046926;28;21340;-69
2022/06/18 04:01:26;;;;;;;2.70;2.50;;;;;;;22.53;43.97;97923.88;5042672;28;20430;-70
2022/06/18 04:03:52;;;;;;;2.80;2.60;;;;;;;22.47;44.23;97921.22;5054754;28;20471;-69
2022/06/18 04:06:18;;;;;;;9.77;3.40;;;;;;;22.44;44.54;97919.78;5055120;28;20433;-69
2022/06/18 04:08:44;;;;;;;5.57;3.27;;;;;;;22.50;44.01;97920.78;5042702;28;20937;-70
2022/06/18 04:11:10;;;;;;;3.93;2.73;;;;;;;22.53;44.12;97921.22;5054704;28;20559;-69
2022/06/18 04:13:36;;;;;;;4.43;2.90;;;;;;;22.55;44.22;97929.84;5043331;28;20893;-70
2022/06/18 04:16:01;;;;;;;2.80;2.60;;;;;;;22.54;45.03;97924.69;5055117;28;20444;-69
2022/06/18 04:18:27;;;;;;;3.10;2.77;;;;;;;22.57;45.21;97921.59;5048785;28;20546;-71
2022/06/18 04:20:53;;;;;;;3.93;2.87;;;;;;;22.63;45.23;97917.25;5042486;28;20183;-70
2022/06/18 04:23:19;;;;;;;3.30;3.00;;;;;;;22.57;45.52;97918.94;5053345;28;20198;-70
2022/06/18 04:25:44;;;;;;;2.90;2.70;;;;;;;22.60;45.50;97925.69;5042463;28;20434;-70
2022/06/18 04:28:14;;;;;;;3.50;3.20;;;;;;;22.58;45.50;97919.72;5054428;28;20202;-71
2022/06/18 04:30:40;;;;;;;3.70;3.20;;;;;;;22.61;45.72;97919.31;5040051;28;20176;-71
2022/06/18 04:33:06;;;;;;;4.60;3.40;;;;;;;22.52;46.27;97919.56;5055772;28;21252;-71
2022/06/18 04:35:31;;;;;;;9.33;3.47;;;;;;;22.52;46.32;97926.75;5053736;28;20267;-71
2022/06/18 04:37:57;;;;;;;6.53;3.37;;;;;;;22.54;46.37;97927.34;5047936;28;20186;-70
2022/06/18 04:40:31;;;;;;;3.93;3.07;;;;;;;22.54;45.93;97922.84;5062834;28;20179;-70
2022/06/18 04:43:04;;;;;;;3.17;2.90;;;;;;;22.58;45.73;97917.06;5064201;28;20198;-70
2022/06/18 04:45:29;;;;;;;4.20;3.23;;;;;;;22.60;45.67;97923.84;5043457;28;20773;-70
2022/06/18 04:47:55;;;;;;;5.80;3.10;;;;;;;22.65;45.49;97923.22;5062693;28;20424;-70
2022/06/18 04:50:23;;;;;;;4.17;3.43;;;;;;;22.66;45.19;97925.66;5060594;28;20183;-71
2022/06/18 04:52:49;;;;;;;4.30;3.90;;;;;;;22.72;45.68;97926.66;5055024;28;20244;-72
2022/06/18 04:55:14;;;;;;;3.53;3.20;;;;;;;22.73;45.83;97924.81;5056564;28;20516;-70
2022/06/18 04:57:40;;;;;;;4.37;3.40;;;;;;;22.78;46.15;97925.81;5062774;28;20178;-71
2022/06/18 05:00:07;;;;;;;3.63;3.10;;;;;;;22.88;46.57;97919.97;5052343;28;20260;-71
2022/06/18 05:02:33;;;;;;;3.47;3.17;;;;;;;22.96;46.65;97922.44;5059163;28;20183;-70
2022/06/18 05:04:59;;;;;;;3.30;3.00;;;;;;;23.02;46.72;97924.22;5062975;28;20413;-71
2022/06/18 05:07:25;;;;;;;4.20;3.33;;;;;;;23.05;46.89;97922.16;5062789;28;20566;-70
2022/06/18 05:09:50;;;;;;;3.20;2.90;;;;;;;23.09;47.33;97924.19;5059030;28;20189;-70
2022/06/18 05:12:16;;;;;;;3.37;3.00;;;;;;;23.16;47.34;97924.97;5055431;28;20209;-71
2022/06/18 05:14:42;;;;;;;3.23;3.00;;;;;;;23.24;46.98;97926.59;5054320;28;20190;-70
2022/06/18 05:17:29;;;;;;;5.00;3.47;;;;;;;23.31;46.07;97921.19;5058640;28;20183;-71
2022/06/18 05:19:55;;;;;;;4.97;3.30;;;;;;;23.44;46.18;97928.28;5065521;28;20421;-71
2022/06/18 05:22:21;;;;;;;5.90;3.40;;;;;;;23.54;45.75;97925.13;5068906;28;20954;-71
2022/06/18 05:24:46;;;;;;;3.67;3.37;;;;;;;23.66;46.00;97928.72;5057623;28;20573;-71
2022/06/18 05:27:21;;;;;;;3.20;2.90;;;;;;;23.77;46.45;97919.16;5056939;28;20853;-70
2022/06/18 05:29:47;;;;;;;3.80;3.33;;;;;;;23.86;46.12;97927.72;5055049;28;20175;-71
2022/06/18 05:32:12;;;;;;;3.33;3.03;;;;;;;23.97;45.75;97916.31;5060013;28;20496;-70
2022/06/18 05:34:38;;;;;;;3.73;3.23;;;;;;;24.05;45.19;97916.03;5060407;28;20245;-71
2022/06/18 05:37:10;;;;;;;4.80;3.00;;;;;;;24.15;44.58;97915.50;5060395;28;20183;-71
2022/06/18 05:39:36;;;;;;;7.90;3.20;;;;;;;24.26;44.27;97916.63;5055651;28;20418;-71
2022/06/18 05:42:01;;;;;;;4.13;3.10;;;;;;;24.35;43.56;97909.91;5056183;28;20460;-70
2022/06/18 05:44:27;;;;;;;3.50;3.30;;;;;;;24.41;43.66;97907.41;5062105;28;20199;-70
2022/06/18 05:46:52;;;;;;;5.90;3.13;;;;;;;24.54;43.96;97908.03;5067727;28;20185;-70
2022/06/18 05:49:18;;;;;;;3.30;3.00;;;;;;;24.67;43.58;97904.38;5068156;28;20182;-70
2022/06/18 05:51:43;;;;;;;3.73;2.97;;;;;;;24.80;43.70;97910.63;5053095;28;20229;-70
2022/06/18 05:54:09;;;;;;;5.23;2.93;;;;;;;24.93;43.60;97909.63;5068483;28;20202;-71
2022/06/18 05:56:34;;;;;;;3.70;3.00;;;;;;;25.06;42.89;97916.66;5065084;28;20642;-70
2022/06/18 05:59:00;;;;;;;3.40;3.10;;;;;;;25.21;42.48;97913.53;5053705;28;20182;-71
2022/06/18 06:01:25;;;;;;;3.70;3.40;;;;;;;25.34;42.85;97910.66;5033819;28;20186;-70
2022/06/18 06:03:51;;;;;;;7.83;3.43;;;;;;;25.49;42.30;97902.19;5045684;28;20195;-71
2022/06/18 06:06:16;;;;;;;4.27;3.00;;;;;;;25.64;41.91;97908.97;5043814;28;20187;-70
2022/06/18 06:08:42;;;;;;;3.87;3.37;;;;;;;25.77;41.83;97909.53;5039756;28;20186;-70
2022/06/18 06:13:53;;;;;;;8.07;3.50;;;;;;;25.99;41.04;97905.44;5044521;28;20560;-70
2022/06/18 06:16:20;;;;;;;10.33;3.90;;;;;;;26.14;40.80;97900.44;5046889;28;20425;-70
2022/06/18 06:18:46;;;;;;;3.60;3.30;;;;;;;26.29;40.65;97899.13;5042896;28;20743;-71
2022/06/18 06:21:12;;;;;;;9.37;3.30;;;;;;;26.38;40.94;97903.06;5047289;28;20512;-70
2022/06/18 06:23:37;;;;;;;3.77;3.40;;;;;;;26.47;41.15;97893.56;5042877;28;20589;-70
2022/06/18 06:26:05;;;;;;;5.23;3.40;;;;;;;26.56;40.70;97898.59;5037927;28;20183;-70
2022/06/18 06:28:30;;;;;;;9.33;3.73;;;;;;;26.65;39.66;97897.94;5042631;28;20172;-71
2022/06/18 06:30:56;;;;;;;4.00;2.90;;;;;;;26.73;39.63;97902.13;5041124;28;20533;-70
2022/06/18 06:33:22;;;;;;;3.40;3.20;;;;;;;26.88;39.41;97895.41;5046469;28;20223;-70
2022/06/18 06:35:48;;;;;;;3.20;3.00;;;;;;;27.02;39.69;97902.13;5047917;28;20176;-70
2022/06/18 06:38:14;;;;;;;3.60;3.07;;;;;;;27.18;39.96;97888.97;5050306;28;20185;-70
2022/06/18 06:40:42;;;;;;;3.40;3.00;;;;;;;27.33;40.53;97896.44;5054128;28;20424;-70
2022/06/18 06:43:10;;;;;;;5.47;3.13;;;;;;;27.46;38.94;97885.38;5051909;28;21053;-71
2022/06/18 06:45:36;;;;;;;4.13;2.97;;;;;;;27.55;38.64;97888.50;5051928;28;20437;-70
2022/06/18 06:48:01;;;;;;;3.83;3.53;;;;;;;27.66;38.49;97886.78;5052523;28;20441;-72
2022/06/18 06:50:28;;;;;;;7.80;2.90;;;;;;;27.80;38.14;97887.22;5043702;28;20186;-71
2022/06/18 06:52:53;;;;;;;4.87;2.93;;;;;;;27.96;37.86;97880.16;5052645;28;20203;-70
2022/06/18 06:58:13;;;;;;;3.03;2.83;;;;;;;28.24;37.63;97881.09;5051986;28;20689;-71
2022/06/18 07:00:41;;;;;;;3.13;2.83;;;;;;;28.38;37.12;97884.22;5052100;28;20855;-71
2022/06/18 07:03:06;;;;;;;3.30;3.07;;;;;;;28.45;36.17;97880.25;5052218;28;20441;-71
2022/06/18 07:05:32;;;;;;;3.30;2.77;;;;;;;28.61;37.10;97877.72;5051802;28;20977;-71
2022/06/18 07:07:57;;;;;;;3.53;2.80;;;;;;;28.74;36.92;97881.94;5052398;28;20202;-71
2022/06/18 07:10:23;;;;;;;3.83;3.00;;;;;;;28.89;37.75;97873.19;5049621;28;20808;-71
2022/06/18 07:12:49;;;;;;;3.23;2.70;;;;;;;29.01;37.04;97881.09;5052315;28;20203;-69
2022/06/18 07:15:14;;;;;;;5.33;3.10;;;;;;;29.14;36.19;97879.88;5052090;28;20297;-70
2022/06/18 07:17:43;;;;;;;3.30;3.00;;;;;;;29.20;34.91;97876.97;5041161;28;20191;-69
2022/06/18 07:20:13;;;;;;;2.80;2.60;;;;;;;29.33;35.29;97873.00;5033175;28;20206;-69
2022/06/18 07:22:38;;;;;;;3.60;2.60;;;;;;;29.38;34.78;97878.50;5032936;28;20419;-69
2022/06/18 07:25:06;;;;;;;3.10;2.80;;;;;;;29.47;34.57;97884.22;5037344;28;20907;-69
2022/06/18 07:27:32;;;;;;;6.53;2.60;;;;;;;29.58;34.15;97875.13;5041900;28;20183;-69
2022/06/18 07:29:58;;;;;;;3.70;2.63;;;;;;;29.70;33.42;97882.22;5040095;28;20418;-71
2022/06/18 07:32:24;;;;;;;5.10;2.90;;;;;;;29.65;33.43;97876.78;5036398;28;20472;-69
2022/06/18 07:34:49;;;;;;;2.93;2.40;;;;;;;29.58;32.11;97867.03;5053179;28;20203;-69
2022/06/18 07:37:15;;;;;;;2.90;2.63;;;;;;;29.79;32.97;97872.53;5041964;28;20172;-70
2022/06/18 07:39:40;;;;;;;5.60;2.33;;;;;;;29.97;32.64;97867.81;5047277;28;20514;-69
2022/06/18 07:42:07;;;;;;;2.60;2.40;;;;;;;30.11;32.86;97860.84;5051453;28;20585;-69
2022/06/18 07:44:32;;;;;;;7.33;2.70;;;;;;;30.25;31.78;97865.75;5051052;28;20576;-69
2022/06/18 07:47:02;;;;;;;2.60;2.40;;;;;;;30.38;30.05;97859.84;5051599;28;20425;-71
2022/06/18 07:49:27;;;;;;;2.50;2.30;;;;;;;30.50;29.25;97855.00;5051106;28;20783;-69
2022/06/18 07:51:53;;;;;;;2.10;2.00;;;;;;;30.50;28.36;97868.53;5051381;28;20438;-70
2022/06/18 07:54:19;;;;;;;2.13;2.03;;;;;;;30.59;28.44;97860.75;5051141;28;20256;-69
2022/06/18 07:56:45;;;;;;;2.90;2.10;;;;;;;30.76;29.05;97860.50;5050800;28;20245;-69
2022/06/18 07:59:11;;;;;;;3.80;2.43;;;;;;;30.92;29.76;97853.22;5040189;28;20430;-70
2022/06/18 08:01:38;;;;;;;3.20;2.30;;;;;;;31.02;28.17;97851.59;5035381;28;20438;-70
2022/06/18 08:04:05;;;;;;;6.73;2.43;;;;;;;31.19;28.34;97851.34;5039664;28;20442;-70
2022/06/18 08:06:31;;;;;;;2.47;1.97;;;;;;;31.32;27.68;97850.81;5045938;28;20430;-69
2022/06/18 08:08:56;;;;;;;3.63;1.90;;;;;;;31.46;27.28;97856.47;5039903;28;20427;-71
2022/06/18 08:11:23;;;;;;;2.00;1.90;;;;;;;31.55;26.69;97856.72;5049594;28;20281;-69
2022/06/18 08:13:50;;;;;;;2.57;1.67;;;;;;;31.60;25.76;97851.31;5041538;28;20215;-70
2022/06/18 08:16:16;;;;;;;3.37;1.73;;;;;;;31.69;25.31;97849.69;5039816;28;20905;-71
2022/06/18 08:18:42;;;;;;;3.60;2.00;;;;;;;31.86;25.95;97848.56;5042600;28;20426;-71
2022/06/18 08:21:13;;;;;;;1.67;1.57;;;;;;;31.91;26.26;97845.03;5039373;28;20929;-71
2022/06/18 08:23:39;;;;;;;2.00;1.80;;;;;;;31.98;26.43;97842.81;5045255;28;20441;-71
2022/06/18 08:26:08;;;;;;;3.07;2.20;;;;;;;32.09;26.58;97840.88;5039565;28;20422;-70
2022/06/18 08:28:35;;;;;;;4.17;1.87;;;;;;;32.19;26.27;97840.84;5045702;28;20428;-72
2022/06/18 08:31:01;;;;;;;6.70;2.03;;;;;;;32.29;25.89;97843.50;5040182;28;20465;-71
2022/06/18 08:33:28;;;;;;;7.43;1.67;;;;;;;32.43;26.06;97845.63;5039924;28;20518;-71
2022/06/18 08:35:53;;;;;;;3.00;1.73;;;;;;;32.45;25.50;97840.72;5048944;28;20504;-70
2022/06/18 08:38:19;;;;;;;2.83;1.90;;;;;;;32.48;25.63;97843.69;5050154;28;20928;-71
2022/06/18 08:40:47;;;;;;;1.90;1.80;;;;;;;32.47;25.14;97836.63;5051204;28;20189;-71
2022/06/18 08:43:38;;;;;;;4.93;2.03;;;;;;;32.66;25.49;97825.13;5044703;28;20701;-71
2022/06/18 08:46:48;;;;;;;3.47;1.90;;;;;;;32.81;25.07;97824.25;5042554;28;20414;-71
2022/06/18 08:49:32;;;;;;;3.63;1.80;;;;;;;32.99;25.37;97824.66;5021817;28;20491;-71
2022/06/18 08:52:10;;;;;;;1.70;1.60;;;;;;;33.17;25.44;97826.66;5034005;28;20426;-72
2022/06/18 08:54:54;;;;;;;1.73;1.63;;;;;;;33.18;24.25;97827.47;5034866;28;20441;-72
2022/06/18 08:57:28;;;;;;;1.63;1.53;;;;;;;33.28;23.68;97831.97;5040949;28;20437;-71
2022/06/18 09:00:13;;;;;;;1.70;1.60;;;;;;;33.26;23.57;97824.13;5041375;28;20417;-71
2022/06/18 09:02:43;;;;;;;1.73;1.63;;;;;;;33.43;23.89;97815.56;5035474;28;20418;-73
2022/06/18 09:05:21;;;;;;;3.83;1.50;;;;;;;33.62;24.27;97815.63;5040292;28;20434;-70
2022/06/18 09:07:54;;;;;;;3.67;1.50;;;;;;;33.66;23.27;97810.44;5038781;28;20425;-70
2022/06/18 09:10:31;;;;;;;2.60;1.57;;;;;;;33.82;23.67;97809.16;5037005;28;20852;-71
2022/06/18 09:13:01;;;;;;;10.00;1.70;;;;;;;33.89;23.32;97797.97;5040655;28;20476;-71
2022/06/18 09:15:30;;;;;;;1.93;1.40;;;;;;;33.80;23.14;97800.47;5038575;28;20771;-70
2022/06/18 09:18:22;;;;;;;2.90;1.50;;;;;;;33.95;23.39;97801.44;5044873;28;20956;-70
2022/06/18 09:20:53;;;;;;;1.57;1.10;;;;;;;34.10;22.72;97803.94;5045029;28;20460;-71
2022/06/18 09:23:28;;;;;;;1.47;1.30;;;;;;;34.22;21.04;97800.78;5025892;28;20494;-70
2022/06/18 09:25:56;;;;;;;2.20;1.40;;;;;;;34.35;20.97;97799.25;5021814;28;21003;-70
2022/06/18 09:28:53;;;;;;;3.30;1.00;;;;;;;34.45;19.85;97795.63;5046828;28;20418;-70
2022/06/18 09:31:26;;;;;;;1.93;1.10;;;;;;;34.59;19.71;97793.75;5033694;28;20496;-71
2022/06/18 09:33:57;;;;;;;3.50;1.20;;;;;;;34.72;19.96;97792.19;5043750;28;20542;-70
2022/06/18 09:36:29;;;;;;;4.37;1.20;;;;;;;34.75;19.71;97794.34;5043278;28;20516;-70
2022/06/18 09:39:01;;;;;;;2.80;1.13;;;;;;;34.83;19.46;97792.03;5034601;28;20434;-73
2022/06/18 09:41:33;;;;;;;7.20;1.63;;;;;;;34.94;19.74;97792.72;5031703;28;20426;-71
2022/06/18 09:44:12;;;;;;;3.00;1.20;;;;;;;35.04;20.49;97787.88;5032831;28;20472;-71
2022/06/18 09:47:13;;;;;;;1.60;1.10;;;;;;;35.02;18.97;97790.13;5030356;28;20448;-71
2022/06/18 09:49:40;;;;;;;2.70;1.70;;;;;;;34.68;20.81;97783.00;5034768;28;20520;-71
2022/06/18 09:52:32;;;;;;;2.00;1.70;;;;;;;35.00;21.70;97786.06;5029554;28;20441;-71
2022/06/18 09:55:22;;;;;;;1.67;1.20;;;;;;;35.13;20.64;97782.56;5036356;28;20450;-70
2022/06/18 09:57:55;;;;;;;3.10;1.40;;;;;;;35.25;18.47;97787.53;5032557;28;20506;-72
2022/06/18 10:00:24;;;;;;;1.60;1.13;;;;;;;35.44;18.83;97787.47;5036562;28;20430;-73
2022/06/18 10:02:59;;;;;;;1.53;1.33;;;;;;;35.62;19.21;97793.94;5036836;28;20788;-71
2022/06/18 10:08:13;;;;;;;5.33;1.87;;;;;;;35.90;19.07;97790.38;5035735;28;20413;-70
2022/06/18 10:10:43;;;;;;;2.50;1.30;;;;;;;35.99;19.14;97791.28;5036807;28;20424;-71
2022/06/18 10:13:14;;;;;;;1.40;1.00;;;;;;;35.87;17.12;97780.91;5035374;28;20465;-71
2022/06/18 10:15:40;;;;;;;1.23;1.13;;;;;;;35.91;17.51;97786.53;5044160;28;20444;-72
2022/06/18 10:18:59;;;;;;;8.03;1.20;;;;;;;35.78;18.24;97777.28;5047480;28;20429;-72
2022/06/18 10:22:08;;;;;;;3.43;1.23;;;;;;;35.62;17.43;97774.88;4958614;28;20287;-72
2022/06/18 10:25:05;;;;;;;3.27;1.30;;;;;;;35.87;18.95;97763.72;5017092;28;20455;-71
2022/06/18 10:27:37;;;;;;;6.17;1.20;;;;;;;36.05;18.48;97762.81;5034356;28;20425;-70
2022/06/18 10:30:15;;;;;;;6.40;0.97;;;;;;;36.19;18.60;97760.03;5041552;28;20499;-73
2022/06/18 10:32:55;;;;;;;4.40;1.30;;;;;;;35.95;18.53;97754.88;5039087;28;20492;-71
2022/06/18 10:35:31;;;;;;;1.77;1.27;;;;;;;36.22;18.71;97753.97;5043705;28;20448;-72
2022/06/18 10:38:18;;;;;;;4.20;1.30;;;;;;;36.38;18.65;97745.44;5047718;28;20934;-71
2022/06/18 10:41:11;;;;;;;2.40;1.43;;;;;;;36.55;17.94;97734.66;5047098;28;20492;-72
2022/06/18 10:43:57;;;;;;;4.53;1.00;;;;;;;36.46;17.33;97741.22;5046058;28;20989;-71
2022/06/18 10:46:23;;;;;;;2.70;1.40;;;;;;;36.10;17.36;97740.06;5051472;28;20423;-71
2022/06/18 10:49:00;;;;;;;2.90;1.40;;;;;;;36.31;19.05;97739.59;5052958;28;20413;-72
2022/06/18 10:51:32;;;;;;;1.27;1.13;;;;;;;36.39;18.67;97725.25;5051036;28;20182;-72
2022/06/18 10:54:02;;;;;;;1.97;1.20;;;;;;;36.68;19.37;97716.63;5052474;28;20468;-70
2022/06/18 10:56:31;;;;;;;3.40;1.40;;;;;;;36.89;19.34;97714.19;5040875;28;20920;-70
2022/06/18 10:58:59;;;;;;;2.07;1.27;;;;;;;36.93;18.10;97729.94;5036651;28;20790;-70
2022/06/18 11:01:34;;;;;;;2.20;1.40;;;;;;;36.96;18.58;97710.22;5043487;28;20432;-71
2022/06/18 11:04:19;;;;;;;3.47;1.50;;;;;;;36.93;17.13;97721.75;5041768;28;20448;-70
2022/06/18 11:06:46;;;;;;;4.00;1.60;;;;;;;37.10;17.48;97705.47;5012055;28;20425;-71
2022/06/18 11:09:21;;;;;;;6.80;1.40;;;;;;;37.32;17.96;97701.03;5041494;28;20982;-70
2022/06/18 11:11:55;;;;;;;2.03;1.40;;;;;;;37.47;17.70;97714.28;5042961;28;20441;-70
2022/06/18 11:14:20;;;;;;;4.70;1.10;;;;;;;37.58;17.95;97706.59;5036306;28;20441;-71
2022/06/18 11:16:47;;;;;;;2.47;1.20;;;;;;;37.56;17.00;97700.66;5044955;28;20827;-71
2022/06/18 11:19:19;;;;;;;4.03;1.50;;;;;;;37.41;17.31;97709.28;5037712;28;20187;-69
2022/06/18 11:21:45;;;;;;;4.13;2.10;;;;;;;37.50;18.47;97702.72;5049448;28;20432;-71
2022/06/18 11:24:11;;;;;;;4.03;1.50;;;;;;;37.68;17.39;97697.28;5037340;28;20442;-70
2022/06/18 11:26:42;;;;;;;5.33;1.53;;;;;;;37.63;17.56;97686.50;5043276;28;20417;-72
2022/06/18 11:29:40;;;;;;;4.00;1.10;;;;;;;37.64;16.60;97699.06;5044327;28;20187;-71
2022/06/18 11:32:19;;;;;;;5.23;1.30;;;;;;;37.83;17.24;97681.53;5037539;28;20455;-69
2022/06/18 11:34:49;;;;;;;4.23;1.67;;;;;;;37.93;17.35;97686.75;5041715;28;20472;-71
2022/06/18 11:37:27;;;;;;;9.80;1.37;;;;;;;38.07;17.86;97681.09;5045721;28;20443;-72
2022/06/18 11:39:58;;;;;;;6.17;1.40;;;;;;;38.17;17.15;97677.25;5040653;28;20430;-70
2022/06/18 11:42:31;;;;;;;7.40;1.90;;;;;;;37.70;16.71;97680.56;5050923;28;20938;-68
2022/06/18 11:45:06;;;;;;;10.60;1.80;;;;;;;37.79;17.17;97676.72;5050050;28;20445;-69
2022/06/18 11:48:04;;;;;;;10.93;1.90;;;;;;;37.89;17.33;97678.34;5049449;28;20793;-69
2022/06/18 11:50:41;;;;;;;5.37;1.90;;;;;;;38.05;16.90;97666.94;5038015;28;21005;-71
2022/06/18 11:53:17;;;;;;;6.30;2.60;;;;;;;38.21;17.43;97662.59;5034520;28;20476;-71
2022/06/18 11:55:48;;;;;;;8.20;2.00;;;;;;;38.24;17.49;97652.94;5037809;28;20443;-71
2022/06/18 11:58:24;;;;;;;10.13;2.03;;;;;;;38.32;16.87;97654.84;5038744;28;20414;-71
2022/06/18 12:01:09;;;;;;;11.93;2.27;;;;;;;37.76;16.36;97660.97;5043378;28;20428;-70
2022/06/18 12:03:47;;;;;;;10.53;2.00;;;;;;;37.98;17.04;97650.22;5041150;28;20436;-70